sensor_id;sensor_type;location;lat;lon;timestamp;temperature;humidity
28336;DHT22;15592;53.656;7.276;2023-04-01T00:02:00;9.50;99.90
28336;DHT22;15592;53.656;7.276;2023-04-01T00:04:26;9.60;99.90
28336;DHT22;15592;53.656;7.276;2023-04-01T00:06:51;9.60;99.90
28336;DHT22;15592;53.656;7.276;2023-04-01T00:09:17;9.50;99.90
28336;DHT22;15592;53.656;7.276;2023-04-01T00:11:43;9.50;99.90
28336;DHT22;15592;53.656;7.276;2023-04-01T00:14:10;9.50;99.90
28336;DHT22;15592;53.656;7.276;2023-04-01T00:16:36;9.50;99.90
28336;DHT22;15592;53.656;7.276;2023-04-01T00:19:02;9.50;99.90
28336;DHT22;15592;53.656;7.276;2023-04-01T00:21:28;9.50;99.90
28336;DHT22;15592;53.656;7.276;2023-04-01T00:23:54;9.50;99.90
28336;DHT22;15592;53.656;7.276;2023-04-01T00:26:20;9.50;99.90
28336;DHT22;15592;53.656;7.276;2023-04-01T00:28:47;9.50;99.90
28336;DHT22;15592;53.656;7.276;2023-04-01T00:31:13;9.50;99.90
28336;DHT22;15592;53.656;7.276;2023-04-01T00:33:39;9.50;99.90
28336;DHT22;15592;53.656;7.276;2023-04-01T00:36:14;9.50;99.90
28336;DHT22;15592;53.656;7.276;2023-04-01T00:38:40;9.50;99.90
28336;DHT22;15592;53.656;7.276;2023-04-01T00:41:07;9.50;99.90
28336;DHT22;15592;53.656;7.276;2023-04-01T00:43:33;9.50;99.90
28336;DHT22;15592;53.656;7.276;2023-04-01T00:45:59;9.50;99.90
28336;DHT22;15592;53.656;7.276;2023-04-01T00:48:29;9.50;99.90
28336;DHT22;15592;53.656;7.276;2023-04-01T00:51:20;9.50;99.90
28336;DHT22;15592;53.656;7.276;2023-04-01T00:53:49;9.50;99.90
28336;DHT22;15592;53.656;7.276;2023-04-01T00:56:22;9.60;99.90
28336;DHT22;15592;53.656;7.276;2023-04-01T00:58:57;9.50;99.90
28336;DHT22;15592;53.656;7.276;2023-04-01T01:01:24;9.50;99.90
28336;DHT22;15592;53.656;7.276;2023-04-01T01:03:51;9.50;99.90
28336;DHT22;15592;53.656;7.276;2023-04-01T01:09:28;9.50;99.90
28336;DHT22;15592;53.656;7.276;2023-04-01T01:25:38;9.50;99.90
28336;DHT22;15592;53.656;7.276;2023-04-01T01:36:13;9.50;99.90
28336;DHT22;15592;53.656;7.276;2023-04-01T01:38:40;9.50;99.90
28336;DHT22;15592;53.656;7.276;2023-04-01T01:41:07;9.50;99.90
28336;DHT22;15592;53.656;7.276;2023-04-01T01:43:37;9.50;99.90
28336;DHT22;15592;53.656;7.276;2023-04-01T01:46:09;9.50;99.90
28336;DHT22;15592;53.656;7.276;2023-04-01T01:48:36;9.50;99.90
28336;DHT22;15592;53.656;7.276;2023-04-01T01:51:07;9.50;99.90
28336;DHT22;15592;53.656;7.276;2023-04-01T01:53:33;9.50;99.90
28336;DHT22;15592;53.656;7.276;2023-04-01T01:55:59;9.50;99.90
28336;DHT22;15592;53.656;7.276;2023-04-01T01:58:29;9.50;99.90
28336;DHT22;15592;53.656;7.276;2023-04-01T02:01:24;9.50;99.90
28336;DHT22;15592;53.656;7.276;2023-04-01T02:03:51;9.50;99.90
28336;DHT22;15592;53.656;7.276;2023-04-01T02:06:19;9.50;99.90
28336;DHT22;15592;53.656;7.276;2023-04-01T02:09:05;9.40;99.90
28336;DHT22;15592;53.656;7.276;2023-04-01T02:14:13;9.40;99.90
28336;DHT22;15592;53.656;7.276;2023-04-01T02:16:49;9.40;99.90
28336;DHT22;15592;53.656;7.276;2023-04-01T02:19:17;9.40;99.90
28336;DHT22;15592;53.656;7.276;2023-04-01T02:21:50;9.40;99.90
28336;DHT22;15592;53.656;7.276;2023-04-01T02:24:18;9.40;99.90
28336;DHT22;15592;53.656;7.276;2023-04-01T02:26:46;9.50;99.90
28336;DHT22;15592;53.656;7.276;2023-04-01T02:29:13;9.40;99.90
28336;DHT22;15592;53.656;7.276;2023-04-01T02:31:39;9.40;99.90
28336;DHT22;15592;53.656;7.276;2023-04-01T02:34:05;9.40;99.90
28336;DHT22;15592;53.656;7.276;2023-04-01T02:36:32;9.40;99.90
28336;DHT22;15592;53.656;7.276;2023-04-01T02:38:57;9.40;99.90
28336;DHT22;15592;53.656;7.276;2023-04-01T02:41:27;9.40;99.90
28336;DHT22;15592;53.656;7.276;2023-04-01T02:43:53;9.50;99.90
28336;DHT22;15592;53.656;7.276;2023-04-01T02:46:19;9.40;99.90
28336;DHT22;15592;53.656;7.276;2023-04-01T02:48:44;9.40;99.90
28336;DHT22;15592;53.656;7.276;2023-04-01T02:51:10;9.40;99.90
28336;DHT22;15592;53.656;7.276;2023-04-01T02:53:35;9.40;99.90
28336;DHT22;15592;53.656;7.276;2023-04-01T02:56:01;9.40;99.90
28336;DHT22;15592;53.656;7.276;2023-04-01T02:58:26;9.40;99.90
28336;DHT22;15592;53.656;7.276;2023-04-01T03:00:52;9.40;99.90
28336;DHT22;15592;53.656;7.276;2023-04-01T03:03:18;9.50;99.90
28336;DHT22;15592;53.656;7.276;2023-04-01T03:05:43;9.50;99.90
28336;DHT22;15592;53.656;7.276;2023-04-01T03:08:09;9.50;99.90
28336;DHT22;15592;53.656;7.276;2023-04-01T03:10:35;9.50;99.90
28336;DHT22;15592;53.656;7.276;2023-04-01T03:13:01;9.50;99.90
28336;DHT22;15592;53.656;7.276;2023-04-01T03:15:27;9.40;99.90
28336;DHT22;15592;53.656;7.276;2023-04-01T03:17:52;9.40;99.90
28336;DHT22;15592;53.656;7.276;2023-04-01T03:20:18;9.50;99.90
28336;DHT22;15592;53.656;7.276;2023-04-01T03:22:44;9.50;99.90
28336;DHT22;15592;53.656;7.276;2023-04-01T03:25:11;9.50;99.90
28336;DHT22;15592;53.656;7.276;2023-04-01T03:27:37;9.50;99.90
28336;DHT22;15592;53.656;7.276;2023-04-01T03:30:04;9.40;99.90
28336;DHT22;15592;53.656;7.276;2023-04-01T03:32:29;9.50;99.90
28336;DHT22;15592;53.656;7.276;2023-04-01T03:34:55;9.50;99.90
28336;DHT22;15592;53.656;7.276;2023-04-01T03:37:22;9.50;99.90
28336;DHT22;15592;53.656;7.276;2023-04-01T03:39:47;9.50;99.90
28336;DHT22;15592;53.656;7.276;2023-04-01T03:42:13;9.50;99.90
28336;DHT22;15592;53.656;7.276;2023-04-01T03:44:38;9.50;99.90
28336;DHT22;15592;53.656;7.276;2023-04-01T03:47:04;9.50;99.90
28336;DHT22;15592;53.656;7.276;2023-04-01T03:49:30;9.50;99.90
28336;DHT22;15592;53.656;7.276;2023-04-01T03:51:57;9.50;99.90
28336;DHT22;15592;53.656;7.276;2023-04-01T03:54:23;9.50;99.90
28336;DHT22;15592;53.656;7.276;2023-04-01T03:56:48;9.50;99.90
28336;DHT22;15592;53.656;7.276;2023-04-01T03:59:15;9.50;99.90
28336;DHT22;15592;53.656;7.276;2023-04-01T04:01:40;9.50;99.90
28336;DHT22;15592;53.656;7.276;2023-04-01T04:04:06;9.50;99.90
28336;DHT22;15592;53.656;7.276;2023-04-01T04:06:32;9.50;99.90
28336;DHT22;15592;53.656;7.276;2023-04-01T04:08:58;9.50;99.90
28336;DHT22;15592;53.656;7.276;2023-04-01T04:11:24;9.50;99.90
28336;DHT22;15592;53.656;7.276;2023-04-01T04:13:51;9.50;99.90
28336;DHT22;15592;53.656;7.276;2023-04-01T04:16:18;9.50;99.90
28336;DHT22;15592;53.656;7.276;2023-04-01T04:18:43;9.50;99.90
28336;DHT22;15592;53.656;7.276;2023-04-01T04:21:12;9.50;99.90
28336;DHT22;15592;53.656;7.276;2023-04-01T04:23:39;9.50;99.90
28336;DHT22;15592;53.656;7.276;2023-04-01T04:26:06;9.40;99.90
28336;DHT22;15592;53.656;7.276;2023-04-01T04:28:33;9.50;99.90
28336;DHT22;15592;53.656;7.276;2023-04-01T04:30:59;9.50;99.90
28336;DHT22;15592;53.656;7.276;2023-04-01T04:33:26;9.50;99.90
28336;DHT22;15592;53.656;7.276;2023-04-01T04:35:54;9.40;99.90
28336;DHT22;15592;53.656;7.276;2023-04-01T04:38:20;9.50;99.90
28336;DHT22;15592;53.656;7.276;2023-04-01T04:40:46;9.50;99.90
28336;DHT22;15592;53.656;7.276;2023-04-01T04:43:13;9.50;99.90
28336;DHT22;15592;53.656;7.276;2023-04-01T04:45:39;9.50;99.90
28336;DHT22;15592;53.656;7.276;2023-04-01T04:48:07;9.50;99.90
28336;DHT22;15592;53.656;7.276;2023-04-01T04:50:46;9.50;99.90
28336;DHT22;15592;53.656;7.276;2023-04-01T04:53:12;9.50;99.90
28336;DHT22;15592;53.656;7.276;2023-04-01T04:55:46;9.50;99.90
28336;DHT22;15592;53.656;7.276;2023-04-01T04:58:27;9.40;99.90
28336;DHT22;15592;53.656;7.276;2023-04-01T05:00:53;9.40;99.90
28336;DHT22;15592;53.656;7.276;2023-04-01T05:03:18;9.40;99.90
28336;DHT22;15592;53.656;7.276;2023-04-01T05:05:52;9.40;99.90
28336;DHT22;15592;53.656;7.276;2023-04-01T05:08:18;9.40;99.90
28336;DHT22;15592;53.656;7.276;2023-04-01T05:10:44;9.40;99.90
28336;DHT22;15592;53.656;7.276;2023-04-01T05:13:10;9.40;99.90
28336;DHT22;15592;53.656;7.276;2023-04-01T05:15:35;9.40;99.90
28336;DHT22;15592;53.656;7.276;2023-04-01T05:18:01;9.40;99.90
28336;DHT22;15592;53.656;7.276;2023-04-01T05:20:27;9.40;99.90
28336;DHT22;15592;53.656;7.276;2023-04-01T05:22:56;9.40;99.90
28336;DHT22;15592;53.656;7.276;2023-04-01T05:25:37;9.40;99.90
28336;DHT22;15592;53.656;7.276;2023-04-01T05:28:03;9.40;99.90
28336;DHT22;15592;53.656;7.276;2023-04-01T05:30:29;9.40;99.90
28336;DHT22;15592;53.656;7.276;2023-04-01T05:32:54;9.40;99.90
28336;DHT22;15592;53.656;7.276;2023-04-01T05:35:20;9.40;99.90
28336;DHT22;15592;53.656;7.276;2023-04-01T05:38:01;9.40;99.90
28336;DHT22;15592;53.656;7.276;2023-04-01T05:40:28;9.30;99.90
28336;DHT22;15592;53.656;7.276;2023-04-01T05:43:07;9.40;99.90
28336;DHT22;15592;53.656;7.276;2023-04-01T05:45:33;9.30;99.90
28336;DHT22;15592;53.656;7.276;2023-04-01T05:47:59;9.30;99.90
28336;DHT22;15592;53.656;7.276;2023-04-01T05:50:25;9.20;99.90
28336;DHT22;15592;53.656;7.276;2023-04-01T05:52:50;9.20;99.90
28336;DHT22;15592;53.656;7.276;2023-04-01T05:55:21;9.10;99.90
28336;DHT22;15592;53.656;7.276;2023-04-01T05:58:10;9.00;99.90
28336;DHT22;15592;53.656;7.276;2023-04-01T06:00:35;9.00;99.90
28336;DHT22;15592;53.656;7.276;2023-04-01T06:03:01;8.90;99.90
28336;DHT22;15592;53.656;7.276;2023-04-01T06:05:29;8.80;99.90
28336;DHT22;15592;53.656;7.276;2023-04-01T06:07:59;8.70;99.90
28336;DHT22;15592;53.656;7.276;2023-04-01T06:10:58;8.70;99.90
28336;DHT22;15592;53.656;7.276;2023-04-01T06:14:04;8.60;99.90
28336;DHT22;15592;53.656;7.276;2023-04-01T06:16:45;8.50;99.90
28336;DHT22;15592;53.656;7.276;2023-04-01T06:34:29;8.40;99.90
28336;DHT22;15592;53.656;7.276;2023-04-01T06:37:27;8.40;99.90
28336;DHT22;15592;53.656;7.276;2023-04-01T06:54:07;8.30;99.90
28336;DHT22;15592;53.656;7.276;2023-04-01T06:56:37;8.30;99.90
28336;DHT22;15592;53.656;7.276;2023-04-01T06:59:12;8.20;99.90
28336;DHT22;15592;53.656;7.276;2023-04-01T07:06:53;8.20;99.90
28336;DHT22;15592;53.656;7.276;2023-04-01T07:09:24;8.20;99.90
28336;DHT22;15592;53.656;7.276;2023-04-01T07:11:53;8.20;99.90
28336;DHT22;15592;53.656;7.276;2023-04-01T07:14:22;8.10;99.90
28336;DHT22;15592;53.656;7.276;2023-04-01T07:16:56;8.10;99.90
28336;DHT22;15592;53.656;7.276;2023-04-01T07:19:29;8.10;99.90
28336;DHT22;15592;53.656;7.276;2023-04-01T07:24:44;8.00;99.90
28336;DHT22;15592;53.656;7.276;2023-04-01T07:27:12;8.00;99.90
28336;DHT22;15592;53.656;7.276;2023-04-01T07:29:38;7.90;99.90
28336;DHT22;15592;53.656;7.276;2023-04-01T07:40:27;7.90;99.90
28336;DHT22;15592;53.656;7.276;2023-04-01T07:46:07;7.80;99.90
28336;DHT22;15592;53.656;7.276;2023-04-01T07:48:40;7.80;99.90
28336;DHT22;15592;53.656;7.276;2023-04-01T07:51:10;7.80;99.90
28336;DHT22;15592;53.656;7.276;2023-04-01T07:53:46;7.70;99.90
28336;DHT22;15592;53.656;7.276;2023-04-01T07:56:32;7.70;99.90
28336;DHT22;15592;53.656;7.276;2023-04-01T08:04:15;7.70;99.90
28336;DHT22;15592;53.656;7.276;2023-04-01T08:17:52;7.60;99.90
28336;DHT22;15592;53.656;7.276;2023-04-01T08:20:42;7.60;99.90
28336;DHT22;15592;53.656;7.276;2023-04-01T08:25:39;7.60;99.90
28336;DHT22;15592;53.656;7.276;2023-04-01T08:28:43;7.60;99.90
28336;DHT22;15592;53.656;7.276;2023-04-01T08:34:30;7.50;99.90
28336;DHT22;15592;53.656;7.276;2023-04-01T08:37:21;7.50;99.90
28336;DHT22;15592;53.656;7.276;2023-04-01T08:39:55;7.50;99.90
28336;DHT22;15592;53.656;7.276;2023-04-01T08:45:48;7.60;99.90
28336;DHT22;15592;53.656;7.276;2023-04-01T09:12:51;7.50;99.90
28336;DHT22;15592;53.656;7.276;2023-04-01T09:15:42;7.50;99.90
28336;DHT22;15592;53.656;7.276;2023-04-01T09:18:42;7.50;99.90
28336;DHT22;15592;53.656;7.276;2023-04-01T09:21:31;7.50;99.90
28336;DHT22;15592;53.656;7.276;2023-04-01T09:32:32;7.50;99.90
28336;DHT22;15592;53.656;7.276;2023-04-01T09:35:48;7.50;99.90
28336;DHT22;15592;53.656;7.276;2023-04-01T09:38:19;7.50;99.90
28336;DHT22;15592;53.656;7.276;2023-04-01T09:46:55;7.50;99.90
28336;DHT22;15592;53.656;7.276;2023-04-01T10:37:31;7.50;99.90
28336;DHT22;15592;53.656;7.276;2023-04-01T10:48:53;7.50;99.90
28336;DHT22;15592;53.656;7.276;2023-04-01T10:54:49;7.50;99.90
28336;DHT22;15592;53.656;7.276;2023-04-01T11:32:53;7.50;99.90
28336;DHT22;15592;53.656;7.276;2023-04-01T11:48:57;7.70;99.90
28336;DHT22;15592;53.656;7.276;2023-04-01T11:55:04;7.60;99.90
28336;DHT22;15592;53.656;7.276;2023-04-01T12:32:44;7.60;99.90
28336;DHT22;15592;53.656;7.276;2023-04-01T12:42:07;7.60;99.90
28336;DHT22;15592;53.656;7.276;2023-04-01T12:44:36;7.60;99.90
28336;DHT22;15592;53.656;7.276;2023-04-01T13:16:29;7.40;99.90
28336;DHT22;15592;53.656;7.276;2023-04-01T13:22:06;7.50;99.90
28336;DHT22;15592;53.656;7.276;2023-04-01T13:28:12;7.30;99.90
28336;DHT22;15592;53.656;7.276;2023-04-01T13:42:40;7.20;99.90
28336;DHT22;15592;53.656;7.276;2023-04-01T13:45:15;7.20;99.90
28336;DHT22;15592;53.656;7.276;2023-04-01T14:14:20;6.90;99.90
28336;DHT22;15592;53.656;7.276;2023-04-01T14:22:57;6.80;99.90
28336;DHT22;15592;53.656;7.276;2023-04-01T14:25:41;6.80;99.90
28336;DHT22;15592;53.656;7.276;2023-04-01T14:44:11;6.60;99.90
28336;DHT22;15592;53.656;7.276;2023-04-01T14:52:40;6.60;99.90
28336;DHT22;15592;53.656;7.276;2023-04-01T15:23:24;6.30;99.90
28336;DHT22;15592;53.656;7.276;2023-04-01T15:31:45;6.30;99.90
28336;DHT22;15592;53.656;7.276;2023-04-01T15:34:44;6.30;99.90
28336;DHT22;15592;53.656;7.276;2023-04-01T15:51:21;6.20;99.90
28336;DHT22;15592;53.656;7.276;2023-04-01T15:56:52;6.20;99.90
28336;DHT22;15592;53.656;7.276;2023-04-01T16:12:30;6.20;99.90
28336;DHT22;15592;53.656;7.276;2023-04-01T16:15:29;6.10;99.90
28336;DHT22;15592;53.656;7.276;2023-04-01T16:23:47;6.00;99.90
28336;DHT22;15592;53.656;7.276;2023-04-01T16:26:27;6.10;99.90
28336;DHT22;15592;53.656;7.276;2023-04-01T16:29:39;6.10;99.90
28336;DHT22;15592;53.656;7.276;2023-04-01T16:35:26;6.00;99.90
28336;DHT22;15592;53.656;7.276;2023-04-01T16:38:26;6.00;99.90
28336;DHT22;15592;53.656;7.276;2023-04-01T16:41:24;6.00;99.90
28336;DHT22;15592;53.656;7.276;2023-04-01T16:43:55;6.10;99.90
28336;DHT22;15592;53.656;7.276;2023-04-01T16:49:29;6.00;99.90
28336;DHT22;15592;53.656;7.276;2023-04-01T17:08:55;5.80;99.90
28336;DHT22;15592;53.656;7.276;2023-04-01T17:21:15;5.80;99.90
28336;DHT22;15592;53.656;7.276;2023-04-01T17:23:43;5.70;99.90
28336;DHT22;15592;53.656;7.276;2023-04-01T17:35:38;5.70;99.90
28336;DHT22;15592;53.656;7.276;2023-04-01T17:41:26;5.70;99.90
28336;DHT22;15592;53.656;7.276;2023-04-01T17:52:06;5.70;99.90
28336;DHT22;15592;53.656;7.276;2023-04-01T18:11:38;5.50;99.90
28336;DHT22;15592;53.656;7.276;2023-04-01T18:14:26;5.50;99.90
28336;DHT22;15592;53.656;7.276;2023-04-01T18:19:26;5.50;99.90
28336;DHT22;15592;53.656;7.276;2023-04-01T18:22:08;5.50;99.90
28336;DHT22;15592;53.656;7.276;2023-04-01T18:24:45;5.40;99.90
28336;DHT22;15592;53.656;7.276;2023-04-01T18:27:30;5.40;99.90
28336;DHT22;15592;53.656;7.276;2023-04-01T18:30:15;5.40;99.90
28336;DHT22;15592;53.656;7.276;2023-04-01T18:32:48;5.40;99.90
28336;DHT22;15592;53.656;7.276;2023-04-01T18:40:43;5.40;99.90
28336;DHT22;15592;53.656;7.276;2023-04-01T18:43:36;5.40;99.90
28336;DHT22;15592;53.656;7.276;2023-04-01T18:51:52;5.40;99.90
28336;DHT22;15592;53.656;7.276;2023-04-01T18:54:31;5.40;99.90
28336;DHT22;15592;53.656;7.276;2023-04-01T18:57:18;5.40;99.90
28336;DHT22;15592;53.656;7.276;2023-04-01T18:59:55;5.40;99.90
28336;DHT22;15592;53.656;7.276;2023-04-01T19:02:31;5.30;99.90
28336;DHT22;15592;53.656;7.276;2023-04-01T19:05:18;5.30;99.90
28336;DHT22;15592;53.656;7.276;2023-04-01T19:13:40;5.20;99.90
28336;DHT22;15592;53.656;7.276;2023-04-01T19:24:35;5.20;99.90
28336;DHT22;15592;53.656;7.276;2023-04-01T19:27:11;5.20;99.90
28336;DHT22;15592;53.656;7.276;2023-04-01T19:29:56;5.10;99.90
28336;DHT22;15592;53.656;7.276;2023-04-01T19:33:04;5.10;99.90
28336;DHT22;15592;53.656;7.276;2023-04-01T19:35:38;5.10;99.90
28336;DHT22;15592;53.656;7.276;2023-04-01T19:46:48;5.10;99.90
28336;DHT22;15592;53.656;7.276;2023-04-01T19:49:31;5.10;99.90
28336;DHT22;15592;53.656;7.276;2023-04-01T20:00:02;5.10;99.90
28336;DHT22;15592;53.656;7.276;2023-04-01T20:03:04;5.00;99.90
28336;DHT22;15592;53.656;7.276;2023-04-01T20:08:12;5.10;99.90
28336;DHT22;15592;53.656;7.276;2023-04-01T20:10:46;5.00;99.90
28336;DHT22;15592;53.656;7.276;2023-04-01T20:13:28;5.00;99.90
28336;DHT22;15592;53.656;7.276;2023-04-01T20:16:06;5.00;99.90
28336;DHT22;15592;53.656;7.276;2023-04-01T20:18:55;4.90;99.90
28336;DHT22;15592;53.656;7.276;2023-04-01T20:21:47;4.90;99.90
28336;DHT22;15592;53.656;7.276;2023-04-01T20:24:33;4.90;99.90
28336;DHT22;15592;53.656;7.276;2023-04-01T20:35:02;4.60;99.90
28336;DHT22;15592;53.656;7.276;2023-04-01T20:37:38;4.60;99.90
28336;DHT22;15592;53.656;7.276;2023-04-01T20:40:34;4.50;99.90
28336;DHT22;15592;53.656;7.276;2023-04-01T20:54:03;4.40;99.90
28336;DHT22;15592;53.656;7.276;2023-04-01T21:21:27;4.20;99.90
28336;DHT22;15592;53.656;7.276;2023-04-01T21:27:20;4.10;99.90
28336;DHT22;15592;53.656;7.276;2023-04-01T21:33:02;4.10;99.90
28336;DHT22;15592;53.656;7.276;2023-04-01T21:41:24;4.00;99.90
28336;DHT22;15592;53.656;7.276;2023-04-01T21:44:09;4.00;99.90
28336;DHT22;15592;53.656;7.276;2023-04-01T21:59:07;3.90;99.90
28336;DHT22;15592;53.656;7.276;2023-04-01T22:07:45;3.80;99.90
28336;DHT22;15592;53.656;7.276;2023-04-01T22:12:56;3.80;99.90
28336;DHT22;15592;53.656;7.276;2023-04-01T22:18:27;3.80;99.90
28336;DHT22;15592;53.656;7.276;2023-04-01T22:29:35;3.70;99.90
28336;DHT22;15592;53.656;7.276;2023-04-01T22:32:05;3.70;99.90
28336;DHT22;15592;53.656;7.276;2023-04-01T22:41:03;3.70;99.90
28336;DHT22;15592;53.656;7.276;2023-04-01T22:43:39;3.70;99.90
28336;DHT22;15592;53.656;7.276;2023-04-01T22:49:15;3.60;99.90
28336;DHT22;15592;53.656;7.276;2023-04-01T22:51:54;3.60;99.90
28336;DHT22;15592;53.656;7.276;2023-04-01T22:57:00;3.60;99.90
28336;DHT22;15592;53.656;7.276;2023-04-01T23:02:35;3.60;99.90
28336;DHT22;15592;53.656;7.276;2023-04-01T23:05:05;3.50;99.90
28336;DHT22;15592;53.656;7.276;2023-04-01T23:10:20;3.50;99.90
28336;DHT22;15592;53.656;7.276;2023-04-01T23:12:49;3.50;99.90
28336;DHT22;15592;53.656;7.276;2023-04-01T23:15:17;3.50;99.90
28336;DHT22;15592;53.656;7.276;2023-04-01T23:17:46;3.40;99.90
28336;DHT22;15592;53.656;7.276;2023-04-01T23:20:47;3.40;99.90
28336;DHT22;15592;53.656;7.276;2023-04-01T23:28:53;3.40;99.90
28336;DHT22;15592;53.656;7.276;2023-04-01T23:31:30;3.40;99.90
28336;DHT22;15592;53.656;7.276;2023-04-01T23:33:59;3.30;99.90
28336;DHT22;15592;53.656;7.276;2023-04-01T23:36:26;3.30;99.90
28336;DHT22;15592;53.656;7.276;2023-04-01T23:38:52;3.30;99.90
28336;DHT22;15592;53.656;7.276;2023-04-01T23:41:26;3.30;99.90
28336;DHT22;15592;53.656;7.276;2023-04-01T23:44:13;3.30;99.90
28336;DHT22;15592;53.656;7.276;2023-04-01T23:46:40;3.30;99.90
28336;DHT22;15592;53.656;7.276;2023-04-01T23:49:15;3.20;99.90
28336;DHT22;15592;53.656;7.276;2023-04-01T23:51:56;3.20;99.90
28336;DHT22;15592;53.656;7.276;2023-04-01T23:55:01;3.20;99.90
28336;DHT22;15592;53.656;7.276;2023-04-01T23:57:34;3.10;99.90
